Time;durP1;ratioP1;P1;durP2;ratioP2;P2;SDS_P1;SDS_P2;PMS_P1;PMS_P2;Temp;Humidity;BMP_temperature;BMP_pressure;BME280_temperature;BME280_humidity;BME280_pressure;Samples;Min_cycle;Max_cycle;Signal;HPM_P1;HPM_P2
2022/03/14 00:00:07;;;;;;;6.07;2.40;;;;;;;;;;10268190;28;20499;-67
2022/03/14 00:05:13;;;;;;;14.90;5.70;;;;;;;;;;10272694;28;20356;-66
2022/03/14 00:10:19;;;;;;;12.50;5.60;;;;;;;;;;10256000;28;20038;-66
2022/03/14 00:15:28;;;;;;;11.63;4.67;;;;;;;;;;10276511;28;20051;-67
2022/03/14 00:20:31;;;;;;;17.10;6.83;;;;;;;;;;10276357;28;20418;-68
2022/03/14 00:25:35;;;;;;;14.73;6.20;;;;;;;;;;10276426;28;20204;-67
2022/03/14 00:30:40;;;;;;;14.07;5.53;;;;;;;;;;10273750;28;20039;-67
2022/03/14 00:35:43;;;;;;;13.93;6.07;;;;;;;;;;10274776;28;20039;-67
2022/03/14 00:40:46;;;;;;;16.07;6.10;;;;;;;;;;10283512;28;20074;-68
2022/03/14 00:45:51;;;;;;;16.48;6.45;;;;;;;;;;10274881;28;20051;-67
2022/03/14 00:50:55;;;;;;;16.17;6.60;;;;;;;;;;10285474;28;20106;-67
2022/03/14 00:55:59;;;;;;;18.53;6.53;;;;;;;;;;10278191;28;20133;-68
2022/03/14 01:01:04;;;;;;;13.27;5.47;;;;;;;;;;10268523;28;20317;-67
2022/03/14 01:06:07;;;;;;;13.10;6.07;;;;;;;;;;10270152;28;20031;-67
2022/03/14 01:11:10;;;;;;;19.83;5.83;;;;;;;;;;10258317;28;20047;-66
2022/03/14 01:16:15;;;;;;;15.07;5.88;;;;;;;;;;10268620;28;20059;-67
2022/03/14 01:21:18;;;;;;;;;;;;;;;;;;10257504;28;20475;-67
2022/03/14 01:26:20;;;;;;;20.93;6.17;;;;;;;;;;10262363;28;19960;-68
2022/03/14 01:31:26;;;;;;;15.97;5.87;;;;;;;;;;10274207;28;20333;-67
2022/03/14 01:36:29;;;;;;;17.83;6.53;;;;;;;;;;10249742;28;20041;-67
2022/03/14 01:41:32;;;;;;;14.60;5.93;;;;;;;;;;10253002;28;20050;-67
2022/03/14 01:46:36;;;;;;;15.67;6.20;;;;;;;;;;10255808;28;20042;-68
2022/03/14 01:51:41;;;;;;;13.40;5.63;;;;;;;;;;10271407;28;20081;-65
2022/03/14 01:56:44;;;;;;;;;;;;;;;;;;10264882;28;20051;-66
2022/03/14 02:01:48;;;;;;;15.63;5.60;;;;;;;;;;10258215;28;19948;-66
2022/03/14 02:06:53;;;;;;;14.47;6.33;;;;;;;;;;10267910;28;20043;-67
2022/03/14 02:12:06;;;;;;;17.20;5.93;;;;;;;;;;10276339;28;20375;-67
2022/03/14 02:17:15;;;;;;;13.27;5.53;;;;;;;;;;10274100;28;20046;-67
2022/03/14 02:22:28;;;;;;;8.67;3.47;;;;;;;;;;10256919;28;20194;-68
2022/03/14 02:27:31;;;;;;;19.60;6.43;;;;;;;;;;10268465;28;21005;-66
2022/03/14 02:32:41;;;;;;;12.30;5.10;;;;;;;;;;10257985;28;20102;-67
2022/03/14 02:37:50;;;;;;;15.93;5.53;;;;;;;;;;10255873;28;20125;-70
2022/03/14 02:42:53;;;;;;;15.80;5.40;;;;;;;;;;10273174;28;20034;-66
2022/03/14 02:47:56;;;;;;;15.03;6.40;;;;;;;;;;10254544;28;20050;-67
2022/03/14 02:53:00;;;;;;;16.00;5.83;;;;;;;;;;10262527;28;20097;-66
2022/03/14 02:58:03;;;;;;;9.00;3.97;;;;;;;;;;10266109;28;20498;-67
2022/03/14 03:03:08;;;;;;;6.30;2.58;;;;;;;;;;10259616;28;20117;-66
2022/03/14 03:08:13;;;;;;;8.65;3.95;;;;;;;;;;10260801;28;20042;-66
2022/03/14 03:13:16;;;;;;;7.93;2.90;;;;;;;;;;10268808;28;20061;-67
2022/03/14 03:18:19;;;;;;;5.97;3.05;;;;;;;;;;10261840;28;20058;-66
2022/03/14 03:23:23;;;;;;;7.68;3.08;;;;;;;;;;10272334;28;20035;-66
2022/03/14 03:28:26;;;;;;;9.68;3.83;;;;;;;;;;10268613;28;20082;-67
2022/03/14 03:33:29;;;;;;;6.20;3.22;;;;;;;;;;10262205;28;20031;-66
2022/03/14 03:38:34;;;;;;;8.75;3.83;;;;;;;;;;10277134;28;20133;-65
2022/03/14 03:43:36;;;;;;;10.43;3.17;;;;;;;;;;10274448;28;20045;-66
2022/03/14 03:48:39;;;;;;;9.98;3.95;;;;;;;;;;10260060;28;20099;-67
2022/03/14 03:53:44;;;;;;;15.48;5.10;;;;;;;;;;10281546;28;20045;-66
2022/03/14 03:58:47;;;;;;;7.63;3.40;;;;;;;;;;10282167;28;20050;-68
2022/03/14 04:03:52;;;;;;;6.50;2.70;;;;;;;;;;10276877;28;20034;-67
2022/03/14 04:09:01;;;;;;;9.85;3.33;;;;;;;;;;10270581;28;20046;-67
2022/03/14 04:14:04;;;;;;;6.03;2.90;;;;;;;;;;10282709;28;20035;-66
2022/03/14 04:19:07;;;;;;;13.70;6.25;;;;;;;;;;10273704;28;20096;-66
2022/03/14 04:24:11;;;;;;;16.13;8.15;;;;;;;;;;10273503;28;20064;-66
2022/03/14 04:29:14;;;;;;;;;;;;;;;;;;10271738;28;20041;-68
2022/03/14 04:34:16;;;;;;;10.88;4.65;;;;;;;;;;10274382;28;19926;-66
2022/03/14 04:39:21;;;;;;;8.52;4.00;;;;;;;;;;10260405;28;20090;-66
2022/03/14 04:44:24;;;;;;;19.67;7.90;;;;;;;;;;10269181;28;20038;-66
2022/03/14 04:49:27;;;;;;;14.85;5.15;;;;;;;;;;10274132;28;20472;-65
2022/03/14 04:54:31;;;;;;;21.02;7.97;;;;;;;;;;10272807;28;20039;-66
2022/03/14 04:59:34;;;;;;;;;;;;;;;;;;10270995;28;20035;-65
2022/03/14 05:04:38;;;;;;;20.15;5.22;;;;;;;;;;10276469;28;19984;-66
2022/03/14 05:09:43;;;;;;;12.40;4.25;;;;;;;;;;10258395;28;20070;-67
2022/03/14 05:14:45;;;;;;;;;;;;;;;;;;10258231;28;20090;-66
2022/03/14 05:19:51;;;;;;;11.18;4.10;;;;;;;;;;10271178;28;19933;-67
2022/03/14 05:24:57;;;;;;;8.15;3.25;;;;;;;;;;10248805;28;20642;-66
2022/03/14 05:30:00;;;;;;;6.38;2.97;;;;;;;;;;10253060;28;20038;-66
2022/03/14 05:35:04;;;;;;;5.68;2.72;;;;;;;;;;10253598;28;20191;-67
2022/03/14 05:40:10;;;;;;;11.37;5.03;;;;;;;;;;10271401;28;20067;-67
2022/03/14 05:45:14;;;;;;;11.70;4.68;;;;;;;;;;10266722;28;20365;-68
2022/03/14 05:50:17;;;;;;;6.88;3.67;;;;;;;;;;10271109;28;20046;-67
2022/03/14 05:55:21;;;;;;;8.85;4.25;;;;;;;;;;10265411;28;20038;-67
2022/03/14 06:00:24;;;;;;;6.55;2.75;;;;;;;;;;10272596;28;20049;-67
2022/03/14 06:05:27;;;;;;;6.55;3.10;;;;;;;;;;10263470;28;20146;-65
2022/03/14 06:10:32;;;;;;;7.68;2.92;;;;;;;;;;10251750;28;20050;-66
2022/03/14 06:15:36;;;;;;;6.80;2.58;;;;;;;;;;10251589;28;20423;-68
2022/03/14 06:20:41;;;;;;;5.78;2.33;;;;;;;;;;10260935;28;20109;-67
2022/03/14 06:25:46;;;;;;;8.23;2.87;;;;;;;;;;10277610;28;20041;-67
2022/03/14 06:30:49;;;;;;;2.97;1.60;;;;;;;;;;10275263;28;20043;-69
2022/03/14 06:35:52;;;;;;;2.70;1.50;;;;;;;;;;10269247;28;20038;-69
2022/03/14 06:40:57;;;;;;;7.53;2.88;;;;;;;;;;10271401;28;20040;-68
2022/03/14 06:46:00;;;;;;;6.05;2.58;;;;;;;;;;10259512;28;20491;-68
2022/03/14 06:51:03;;;;;;;2.03;1.63;;;;;;;;;;10278339;28;20039;-67
2022/03/14 06:56:08;;;;;;;6.90;2.60;;;;;;;;;;10262426;28;20043;-67
2022/03/14 07:01:11;;;;;;;3.53;1.52;;;;;;;;;;10274605;28;20034;-68
2022/03/14 07:06:15;;;;;;;2.92;1.50;;;;;;;;;;10278312;28;20035;-66
2022/03/14 07:11:18;;;;;;;;;;;;;;;;;;10277859;28;20035;-66
2022/03/14 07:16:22;;;;;;;2.13;1.52;;;;;;;;;;10266837;28;19933;-68
2022/03/14 07:21:28;;;;;;;2.90;1.98;;;;;;;;;;10264100;28;20480;-68
2022/03/14 07:26:32;;;;;;;3.97;1.52;;;;;;;;;;10277240;28;20043;-67
2022/03/14 07:31:37;;;;;;;3.03;1.75;;;;;;;;;;10261774;28;20062;-67
2022/03/14 07:36:42;;;;;;;1.80;1.42;;;;;;;;;;10274208;28;20080;-67
2022/03/14 07:41:45;;;;;;;2.80;1.75;;;;;;;;;;10271352;28;20434;-70
2022/03/14 07:46:49;;;;;;;4.15;1.83;;;;;;;;;;10276721;28;20042;-67
2022/03/14 07:51:54;;;;;;;2.65;1.52;;;;;;;;;;10267159;28;20113;-69
2022/03/14 07:56:56;;;;;;;1.63;1.13;;;;;;;;;;10269693;28;20039;-66
2022/03/14 08:01:59;;;;;;;;;;;;;;;;;;10281519;28;20522;-67
2022/03/14 08:07:02;;;;;;;;;;;;;;;;;;10260072;28;19925;-69
2022/03/14 08:12:05;;;;;;;;;;;;;;;;;;10258381;28;19944;-68
2022/03/14 08:17:09;;;;;;;1.65;1.20;;;;;;;;;;10248945;28;19968;-66
2022/03/14 08:22:12;;;;;;;2.38;1.40;;;;;;;;;;10276579;28;20085;-67
2022/03/14 08:27:15;;;;;;;3.63;1.20;;;;;;;;;;10275136;28;20120;-67
2022/03/14 08:32:22;;;;;;;0.85;0.80;;;;;;;;;;10276617;28;20423;-68
2022/03/14 08:37:26;;;;;;;3.58;3.25;;;;;;;;;;10271219;28;20117;-68
2022/03/14 08:42:29;;;;;;;2.60;1.50;;;;;;;;;;10268622;23;20141;-75
2022/03/14 08:47:34;;;;;;;2.88;1.48;;;;;;;;;;10225302;28;20098;-75
2022/03/14 08:52:37;;;;;;;4.82;4.38;;;;;;;;;;10227088;28;20075;-73
2022/03/14 08:57:40;;;;;;;1.45;1.15;;;;;;;;;;10231226;28;20034;-75
2022/03/14 09:02:45;;;;;;;1.85;0.90;;;;;;;;;;10227174;28;20043;-75
2022/03/14 09:07:49;;;;;;;0.95;0.95;;;;;;;;;;10223572;28;20146;-75
2022/03/14 09:12:52;;;;;;;1.38;1.27;;;;;;;;;;10222327;28;20051;-75
2022/03/14 09:17:59;;;;;;;1.48;1.20;;;;;;;;;;10227592;28;20208;-75
2022/03/14 09:23:03;;;;;;;3.38;1.20;;;;;;;;;;10226313;28;20081;-75
2022/03/14 09:28:06;;;;;;;2.53;1.23;;;;;;;;;;10226727;28;20500;-75
2022/03/14 09:33:10;;;;;;;2.85;1.40;;;;;;;;;;10247425;28;20057;-75
2022/03/14 09:38:15;;;;;;;1.63;1.20;;;;;;;;;;10239935;28;20040;-74
2022/03/14 09:43:18;;;;;;;1.50;1.15;;;;;;;;;;10238174;28;20035;-73
2022/03/14 09:48:21;;;;;;;;;;;;;;;;;;10218116;28;20042;-74
2022/03/14 09:53:26;;;;;;;1.38;0.85;;;;;;;;;;10230828;28;19978;-74
2022/03/14 09:58:29;;;;;;;;;;;;;;;;;;10234564;28;20416;-73
2022/03/14 10:03:32;;;;;;;3.40;1.15;;;;;;;;;;10232905;28;20397;-75
2022/03/14 10:08:37;;;;;;;0.80;0.80;;;;;;;;;;10229347;28;20042;-74
2022/03/14 10:13:39;;;;;;;;;;;;;;;;;;10241910;28;20047;-73
2022/03/14 10:18:54;;;;;;;7.25;1.30;;;;;;;;;;10237872;28;19928;-73
2022/03/14 10:24:01;;;;;;;2.33;0.98;;;;;;;;;;10237250;28;20058;-74
2022/03/14 10:29:09;;;;;;;0.80;0.70;;;;;;;;;;10248549;28;20031;-73
2022/03/14 10:34:13;;;;;;;1.00;0.85;;;;;;;;;;10247070;28;20500;-73
2022/03/14 10:39:16;;;;;;;;;;;;;;;;;;10243048;28;20484;-74
2022/03/14 10:44:18;;;;;;;;;;;;;;;;;;10235714;28;21803;-75
2022/03/14 10:49:26;;;;;;;4.25;1.33;;;;;;;;;;10231175;28;19997;-74
2022/03/14 10:54:30;;;;;;;5.57;1.70;;;;;;;;;;10230306;28;20081;-75
2022/03/14 10:59:37;;;;;;;3.15;1.60;;;;;;;;;;10248519;28;20086;-74
2022/03/14 11:04:42;;;;;;;1.95;1.13;;;;;;;;;;10226525;28;20047;-74
2022/03/14 11:09:50;;;;;;;6.10;3.15;;;;;;;;;;10225733;28;20155;-74
2022/03/14 11:14:54;;;;;;;2.13;1.67;;;;;;;;;;10248170;28;20143;-75
2022/03/14 11:19:59;;;;;;;1.50;1.00;;;;;;;;;;10244014;28;20047;-74
2022/03/14 11:25:02;;;;;;;1.52;1.38;;;;;;;;;;10230779;28;20039;-75
2022/03/14 11:30:08;;;;;;;2.08;1.30;;;;;;;;;;10232477;28;20035;-75
2022/03/14 11:35:13;;;;;;;2.00;1.48;;;;;;;;;;10229107;28;20423;-74
2022/03/14 11:40:16;;;;;;;;;;;;;;;;;;10229101;28;20047;-73
2022/03/14 11:45:19;;;;;;;3.85;1.65;;;;;;;;;;10243067;28;19945;-74
2022/03/14 11:50:23;;;;;;;1.48;1.38;;;;;;;;;;10242875;28;20146;-75
2022/03/14 11:55:28;;;;;;;2.83;1.48;;;;;;;;;;10230744;28;20114;-74
2022/03/14 12:00:35;;;;;;;1.70;1.45;;;;;;;;;;10241619;28;20047;-75
2022/03/14 12:05:47;;;;;;;1.40;1.30;;;;;;;;;;10246776;28;20035;-74
2022/03/14 12:10:50;;;;;;;;;;;;;;;;;;10226590;28;20128;-74
2022/03/14 12:15:54;;;;;;;2.33;2.10;;;;;;;;;;10227907;28;20287;-74
2022/03/14 12:21:03;;;;;;;2.25;2.05;;;;;;;;;;10227497;28;20078;-75
2022/03/14 12:26:23;;;;;;;1.20;1.10;;;;;;;;;;10235878;28;20062;-75
2022/03/14 12:31:26;;;;;;;1.83;1.73;;;;;;;;;;10232192;28;20298;-74
2022/03/14 12:36:34;;;;;;;1.58;1.48;;;;;;;;;;10228815;28;20045;-74
2022/03/14 12:41:38;;;;;;;1.73;1.52;;;;;;;;;;10229911;28;20054;-74
2022/03/14 12:46:42;;;;;;;3.10;2.10;;;;;;;;;;10252097;28;20035;-74
2022/03/14 12:51:47;;;;;;;7.32;1.60;;;;;;;;;;10233143;28;20046;-73
2022/03/14 12:56:50;;;;;;;2.63;1.52;;;;;;;;;;10230850;28;20043;-73
2022/03/14 13:02:02;;;;;;;1.30;1.20;;;;;;;;;;10663111;27;21001;-74
2022/03/14 13:07:05;;;;;;;2.63;2.10;;;;;;;;;;10639690;27;20092;-74
2022/03/14 13:12:16;;;;;;;2.88;1.63;;;;;;;;;;10629031;27;20054;-74
2022/03/14 13:17:25;;;;;;;2.53;2.03;;;;;;;;;;10618507;27;20046;-72
2022/03/14 13:22:28;;;;;;;3.85;2.50;;;;;;;;;;10620832;27;20133;-74
2022/03/14 13:27:37;;;;;;;1.65;1.55;;;;;;;;;;10642201;27;20043;-74
2022/03/14 13:32:41;;;;;;;3.60;2.22;;;;;;;;;;10618326;27;20046;-73
2022/03/14 13:37:45;;;;;;;6.15;2.00;;;;;;;;;;10613281;27;20131;-74
2022/03/14 13:42:50;;;;;;;1.98;1.50;;;;;;;;;;10615555;27;20571;-73
2022/03/14 13:47:58;;;;;;;2.03;1.60;;;;;;;;;;10622956;27;20103;-74
2022/03/14 13:53:01;;;;;;;1.35;1.25;;;;;;;;;;10638612;27;20042;-75
2022/03/14 13:58:04;;;;;;;2.38;1.60;;;;;;;;;;10616038;27;20099;-74
2022/03/14 14:03:09;;;;;;;2.67;1.60;;;;;;;;;;10616672;27;20116;-74
2022/03/14 14:08:13;;;;;;;3.28;1.60;;;;;;;;;;10615276;27;20032;-74
2022/03/14 14:13:16;;;;;;;3.25;1.70;;;;;;;;;;10589189;27;20442;-75
2022/03/14 14:18:35;;;;;;;1.70;1.27;;;;;;;;;;10565507;27;20040;-74
2022/03/14 14:29:44;;;;;;;3.40;1.52;;;;;;;;;;10583130;27;20023;-74
2022/03/14 14:34:48;;;;;;;2.25;1.70;;;;;;;;;;10607805;27;20088;-75
2022/03/14 14:45:55;;;;;;;3.33;2.00;;;;;;;;;;10590887;27;20019;-74
2022/03/14 14:51:02;;;;;;;4.93;1.50;;;;;;;;;;10557457;22;20143;-72
2022/03/14 14:56:07;;;;;;;2.83;1.70;;;;;;;;;;10476525;28;20458;-74
2022/03/14 15:01:10;;;;;;;2.63;1.75;;;;;;;;;;10462172;28;20033;-71
2022/03/14 15:06:18;;;;;;;2.22;1.50;;;;;;;;;;10448040;28;20052;-70
2022/03/14 15:11:21;;;;;;;5.05;1.63;;;;;;;;;;10446067;28;20492;-71
2022/03/14 15:16:24;;;;;;;;;;;;;;;;;;10445626;28;20542;-73
2022/03/14 15:21:29;;;;;;;2.85;1.65;;;;;;;;;;10437411;28;19943;-72
2022/03/14 15:26:32;;;;;;;4.90;1.70;;;;;;;;;;10443407;28;20041;-72
2022/03/14 15:31:35;;;;;;;3.63;1.52;;;;;;;;;;10445271;28;20131;-71
2022/03/14 15:36:38;;;;;;;;;;;;;;;;;;10444790;28;20098;-71
2022/03/14 15:41:42;;;;;;;1.80;1.40;;;;;;;;;;10450392;28;19927;-72
2022/03/14 15:46:45;;;;;;;2.10;1.35;;;;;;;;;;10440291;28;20045;-72
2022/03/14 15:51:49;;;;;;;3.47;1.58;;;;;;;;;;10449176;28;20044;-69
2022/03/14 15:56:55;;;;;;;2.90;1.67;;;;;;;;;;10437124;28;20128;-72
2022/03/14 16:01:58;;;;;;;6.03;1.80;;;;;;;;;;10436414;28;20036;-70
2022/03/14 16:07:01;;;;;;;5.30;1.63;;;;;;;;;;10459467;28;20232;-71
2022/03/14 16:12:06;;;;;;;1.45;1.02;;;;;;;;;;10437495;28;20037;-72
2022/03/14 16:17:09;;;;;;;1.95;1.30;;;;;;;;;;10431992;28;20480;-72
2022/03/14 16:22:12;;;;;;;2.67;1.67;;;;;;;;;;10442693;28;20118;-71
2022/03/14 16:27:16;;;;;;;2.60;1.52;;;;;;;;;;10441621;28;20051;-71
2022/03/14 16:32:20;;;;;;;2.28;1.33;;;;;;;;;;10435427;28;20033;-71
2022/03/14 16:37:23;;;;;;;2.53;1.55;;;;;;;;;;10441110;28;20098;-71
2022/03/14 16:42:28;;;;;;;2.25;1.30;;;;;;;;;;10432867;28;20036;-71
2022/03/14 16:47:31;;;;;;;2.75;1.40;;;;;;;;;;10434047;28;20041;-72
2022/03/14 16:52:34;;;;;;;2.78;1.33;;;;;;;;;;10444495;28;20500;-73
2022/03/14 16:57:39;;;;;;;2.67;1.20;;;;;;;;;;10439089;28;20037;-71
2022/03/14 17:02:43;;;;;;;3.15;1.40;;;;;;;;;;10429799;28;20052;-71
2022/03/14 17:07:46;;;;;;;4.90;1.90;;;;;;;;;;10430697;28;20052;-72
2022/03/14 17:12:49;;;;;;;;;;;;;;;;;;10444722;28;20036;-71
2022/03/14 17:17:56;;;;;;;3.03;1.27;;;;;;;;;;10435300;28;20016;-70
2022/03/14 17:23:01;;;;;;;2.58;1.00;;;;;;;;;;10438049;28;20155;-71
2022/03/14 17:28:08;;;;;;;3.25;1.30;;;;;;;;;;10429064;28;20049;-70
2022/03/14 17:33:13;;;;;;;4.40;1.77;;;;;;;;;;10439812;28;20041;-70
2022/03/14 17:38:16;;;;;;;3.20;1.77;;;;;;;;;;10442677;28;20433;-72
2022/03/14 17:43:19;;;;;;;3.37;1.33;;;;;;;;;;10437805;28;20044;-72
2022/03/14 17:48:25;;;;;;;2.33;1.40;;;;;;;;;;10442957;28;20045;-72
2022/03/14 17:53:30;;;;;;;6.88;1.83;;;;;;;;;;10447998;28;20036;-72
2022/03/14 17:58:34;;;;;;;5.43;1.80;;;;;;;;;;10448973;28;20032;-72
2022/03/14 18:03:39;;;;;;;7.43;2.30;;;;;;;;;;10448225;28;20060;-72
2022/03/14 18:08:42;;;;;;;5.28;1.50;;;;;;;;;;10468916;28;20068;-73
2022/03/14 18:13:46;;;;;;;5.23;1.90;;;;;;;;;;10450155;28;20042;-72
2022/03/14 18:18:50;;;;;;;4.63;1.97;;;;;;;;;;10452929;28;20045;-73
2022/03/14 18:23:53;;;;;;;5.72;2.40;;;;;;;;;;10453775;28;20501;-74
2022/03/14 18:29:00;;;;;;;7.20;2.50;;;;;;;;;;10462063;28;20167;-73
2022/03/14 18:34:08;;;;;;;7.00;2.88;;;;;;;;;;10456844;28;20102;-74
2022/03/14 18:39:12;;;;;;;4.47;2.20;;;;;;;;;;10463780;28;20500;-74
2022/03/14 18:44:39;;;;;;;12.70;2.65;;;;;;;;;;10455705;28;20038;-73
2022/03/14 18:49:44;;;;;;;8.30;2.20;;;;;;;;;;10447665;28;20036;-73
2022/03/14 18:54:50;;;;;;;5.35;2.00;;;;;;;;;;10442560;28;20087;-71
2022/03/14 18:59:53;;;;;;;;;;;;;;;;;;10470684;28;20032;-72
2022/03/14 19:04:57;;;;;;;9.57;3.25;;;;;;;;;;10444935;28;20547;-72
2022/03/14 19:10:01;;;;;;;7.32;2.10;;;;;;;;;;10444280;28;20071;-73
2022/03/14 19:15:04;;;;;;;9.30;2.67;;;;;;;;;;10454690;28;20044;-73
2022/03/14 19:20:10;;;;;;;6.30;2.40;;;;;;;;;;10469824;28;20037;-73
2022/03/14 19:25:13;;;;;;;5.07;2.20;;;;;;;;;;10459092;28;20048;-74
2022/03/14 19:30:36;;;;;;;7.90;2.40;;;;;;;;;;10441395;28;20366;-72
2022/03/14 19:35:43;;;;;;;10.52;2.40;;;;;;;;;;10452067;28;20049;-73
2022/03/14 19:40:46;;;;;;;8.90;2.28;;;;;;;;;;10468293;28;20067;-75
2022/03/14 19:45:50;;;;;;;5.45;2.00;;;;;;;;;;10462942;28;20051;-71
2022/03/14 19:50:58;;;;;;;6.28;2.10;;;;;;;;;;10442697;28;20226;-72
2022/03/14 19:56:02;;;;;;;6.43;2.30;;;;;;;;;;10434695;28;20127;-70
2022/03/14 20:01:05;;;;;;;;;;;;;;;;;;10437617;28;20096;-74
2022/03/14 20:06:16;;;;;;;4.17;2.17;;;;;;;;;;10444858;28;20238;-73
2022/03/14 20:11:21;;;;;;;6.43;2.53;;;;;;;;;;10438737;28;20497;-70
2022/03/14 20:16:24;;;;;;;6.47;2.10;;;;;;;;;;10439414;28;20049;-73
2022/03/14 20:21:29;;;;;;;5.53;2.03;;;;;;;;;;10436190;28;20039;-73
2022/03/14 20:26:37;;;;;;;3.67;2.05;;;;;;;;;;10455242;28;20057;-74
2022/03/14 20:31:41;;;;;;;2.42;1.50;;;;;;;;;;10451570;28;20098;-72
2022/03/14 20:36:46;;;;;;;4.55;2.08;;;;;;;;;;10485430;28;20028;-72
2022/03/14 20:41:50;;;;;;;2.95;1.80;;;;;;;;;;10452711;28;20090;-74
2022/03/14 20:46:53;;;;;;;5.70;1.77;;;;;;;;;;10441564;28;20048;-73
2022/03/14 20:51:57;;;;;;;4.10;2.05;;;;;;;;;;10442424;28;20041;-75
2022/03/14 20:57:02;;;;;;;4.57;2.25;;;;;;;;;;10437413;28;20090;-74
2022/03/14 21:07:25;;;;;;;;;;;;;;;;;;10521215;28;21519;-75
2022/03/14 21:12:31;;;;;;;;;;;;;;;;;;10491250;28;19924;-74
2022/03/14 21:17:34;;;;;;;;;;;;;;;;;;10499525;28;19967;-73
2022/03/14 21:22:36;;;;;;;;;;;;;;;;;;10512187;28;19981;-75
2022/03/14 21:27:42;;;;;;;3.33;1.95;;;;;;;;;;10510985;28;19924;-74
2022/03/14 21:32:45;;;;;;;5.95;2.70;;;;;;;;;;10506407;28;20100;-73
2022/03/14 21:37:49;;;;;;;7.63;2.47;;;;;;;;;;10504142;28;20048;-75
2022/03/14 21:42:55;;;;;;;7.68;2.50;;;;;;;;;;10508817;28;20563;-74
2022/03/14 21:47:58;;;;;;;;;;;;;;;;;;10491669;28;20096;-75
2022/03/14 21:53:00;;;;;;;;;;;;;;;;;;10493413;28;20339;-75
2022/03/14 21:58:09;;;;;;;5.75;3.28;;;;;;;;;;10493668;28;19920;-75
2022/03/14 22:03:14;;;;;;;5.93;2.85;;;;;;;;;;10491702;28;20034;-75
2022/03/14 22:08:17;;;;;;;6.18;2.50;;;;;;;;;;10496057;28;20113;-78
2022/03/14 22:13:22;;;;;;;9.05;3.15;;;;;;;;;;10490719;28;20044;-76
2022/03/14 22:18:28;;;;;;;5.90;2.58;;;;;;;;;;10495751;28;20051;-75
2022/03/14 22:23:31;;;;;;;6.03;2.40;;;;;;;;;;10498515;28;20036;-76
2022/03/14 22:28:35;;;;;;;6.53;1.90;;;;;;;;;;10502197;28;20052;-74
2022/03/14 22:33:38;;;;;;;5.05;2.30;;;;;;;;;;10515410;28;20054;-76
2022/03/14 22:38:41;;;;;;;6.70;2.38;;;;;;;;;;10513551;28;20310;-77
2022/03/14 22:43:45;;;;;;;6.30;2.63;;;;;;;;;;10511049;28;20037;-76
2022/03/14 22:48:49;;;;;;;6.38;2.85;;;;;;;;;;10501621;28;20392;-75
2022/03/14 22:53:52;;;;;;;6.72;2.45;;;;;;;;;;10493258;28;20492;-74
2022/03/14 22:58:57;;;;;;;6.00;2.63;;;;;;;;;;10482639;28;20041;-73
2022/03/14 23:09:22;;;;;;;7.53;2.70;;;;;;;;;;10480493;28;20041;-74
2022/03/14 23:14:27;;;;;;;6.40;2.63;;;;;;;;;;10489267;28;20039;-75
2022/03/14 23:19:30;;;;;;;7.25;2.75;;;;;;;;;;10494858;28;20028;-74
2022/03/14 23:24:34;;;;;;;6.60;2.38;;;;;;;;;;10490572;28;20032;-75
2022/03/14 23:29:38;;;;;;;7.63;3.00;;;;;;;;;;10530590;28;20051;-75
2022/03/14 23:34:40;;;;;;;;;;;;;;;;;;10502963;28;20484;-75
2022/03/14 23:39:43;;;;;;;6.00;2.35;;;;;;;;;;10493175;28;19921;-76
2022/03/14 23:44:47;;;;;;;7.57;3.03;;;;;;;;;;10485590;28;20094;-75
2022/03/14 23:49:50;;;;;;;6.63;2.70;;;;;;;;;;10485675;28;20044;-75
2022/03/14 23:54:53;;;;;;;6.15;2.97;;;;;;;;;;10483379;28;20137;-75
2022/03/14 23:59:58;;;;;;;9.63;2.80;;;;;;;;;;10487031;28;20101;-74
